Terminal Aerodrome Forecast
Issued by NWS Wilmington, OH

Current Version | Previous Version | Graphics & Text | Print | Product List | Glossary On
Versions: 1 2 3 4 5 6 7 8 9 10 11 12 13 14 15 16 17 18
586
FTUS41 KILN 191459 AAB
TAFILN
TAF AMD
KILN 191459Z 1915/2012 29012G20KT P6SM OVC035
      TEMPO 1915/1918 BKN025
     FM192300 28010KT P6SM SCT035
     FM200600 25008KT P6SM SKC
     FM201000 22008KT P6SM SKC=

USA.gov is the U.S. government's official web portal to all federal, state and local government web resources and services.